sensor_id;sensor_type;location;lat;lon;timestamp;P1;durP1;ratioP1;P2;durP2;ratioP2
17686;SDS011;8962;52.538;13.266;2024-03-23T00:55:30;19.27;;;3.97;;
17686;SDS011;8962;52.538;13.266;2024-03-23T00:57:57;22.52;;;4.05;;
17686;SDS011;8962;52.538;13.266;2024-03-23T01:00:25;14.95;;;3.60;;
17686;SDS011;8962;52.538;13.266;2024-03-23T01:02:52;21.25;;;4.57;;
17686;SDS011;8962;52.538;13.266;2024-03-23T01:05:18;27.27;;;4.28;;
17686;SDS011;8962;52.538;13.266;2024-03-23T01:07:46;22.65;;;5.30;;
17686;SDS011;8962;52.538;13.266;2024-03-23T01:10:13;22.30;;;4.72;;
17686;SDS011;8962;52.538;13.266;2024-03-23T01:12:41;17.95;;;4.43;;
17686;SDS011;8962;52.538;13.266;2024-03-23T01:15:07;21.00;;;4.35;;
17686;SDS011;8962;52.538;13.266;2024-03-23T01:17:35;17.98;;;4.15;;
17686;SDS011;8962;52.538;13.266;2024-03-23T01:20:01;26.52;;;4.50;;
17686;SDS011;8962;52.538;13.266;2024-03-23T01:22:29;21.52;;;4.43;;
17686;SDS011;8962;52.538;13.266;2024-03-23T01:24:55;21.10;;;4.78;;
17686;SDS011;8962;52.538;13.266;2024-03-23T01:27:24;24.92;;;4.35;;
17686;SDS011;8962;52.538;13.266;2024-03-23T01:29:50;19.80;;;4.85;;
17686;SDS011;8962;52.538;13.266;2024-03-23T01:32:18;22.63;;;4.70;;
17686;SDS011;8962;52.538;13.266;2024-03-23T01:34:45;21.80;;;4.88;;
17686;SDS011;8962;52.538;13.266;2024-03-23T01:37:12;23.55;;;4.32;;
17686;SDS011;8962;52.538;13.266;2024-03-23T01:39:38;19.33;;;4.07;;
17686;SDS011;8962;52.538;13.266;2024-03-23T01:42:05;21.73;;;4.35;;
17686;SDS011;8962;52.538;13.266;2024-03-23T01:44:32;26.63;;;3.85;;
17686;SDS011;8962;52.538;13.266;2024-03-23T01:46:59;25.83;;;4.13;;
17686;SDS011;8962;52.538;13.266;2024-03-23T01:49:26;17.13;;;4.53;;
17686;SDS011;8962;52.538;13.266;2024-03-23T01:51:53;17.80;;;4.00;;
17686;SDS011;8962;52.538;13.266;2024-03-23T01:54:19;16.77;;;4.07;;
17686;SDS011;8962;52.538;13.266;2024-03-23T01:56:46;12.73;;;3.33;;
17686;SDS011;8962;52.538;13.266;2024-03-23T01:59:14;21.02;;;4.00;;
17686;SDS011;8962;52.538;13.266;2024-03-23T02:01:43;25.55;;;4.88;;
17686;SDS011;8962;52.538;13.266;2024-03-23T02:04:09;18.95;;;4.25;;
17686;SDS011;8962;52.538;13.266;2024-03-23T02:06:36;19.83;;;4.00;;
17686;SDS011;8962;52.538;13.266;2024-03-23T02:09:02;20.52;;;4.43;;
17686;SDS011;8962;52.538;13.266;2024-03-23T02:11:30;22.33;;;3.97;;
17686;SDS011;8962;52.538;13.266;2024-03-23T02:13:56;17.63;;;4.13;;
17686;SDS011;8962;52.538;13.266;2024-03-23T02:16:23;19.25;;;3.80;;
17686;SDS011;8962;52.538;13.266;2024-03-23T02:18:51;22.55;;;4.35;;
17686;SDS011;8962;52.538;13.266;2024-03-23T02:21:19;17.27;;;3.80;;
17686;SDS011;8962;52.538;13.266;2024-03-23T02:23:46;17.30;;;4.47;;
17686;SDS011;8962;52.538;13.266;2024-03-23T02:26:13;21.00;;;4.00;;
17686;SDS011;8962;52.538;13.266;2024-03-23T02:28:40;20.80;;;4.38;;
17686;SDS011;8962;52.538;13.266;2024-03-23T02:31:07;23.55;;;3.83;;
17686;SDS011;8962;52.538;13.266;2024-03-23T02:33:33;18.92;;;4.35;;
17686;SDS011;8962;52.538;13.266;2024-03-23T02:36:03;23.50;;;3.83;;
17686;SDS011;8962;52.538;13.266;2024-03-23T02:38:29;18.02;;;4.15;;
17686;SDS011;8962;52.538;13.266;2024-03-23T02:41:02;19.20;;;3.58;;
17686;SDS011;8962;52.538;13.266;2024-03-23T02:43:29;22.60;;;3.80;;
17686;SDS011;8962;52.538;13.266;2024-03-23T02:45:57;22.13;;;3.78;;
17686;SDS011;8962;52.538;13.266;2024-03-23T02:48:23;22.27;;;4.00;;
17686;SDS011;8962;52.538;13.266;2024-03-23T02:50:50;21.52;;;4.05;;
17686;SDS011;8962;52.538;13.266;2024-03-23T02:53:17;22.35;;;4.13;;
17686;SDS011;8962;52.538;13.266;2024-03-23T02:55:44;20.73;;;4.07;;
17686;SDS011;8962;52.538;13.266;2024-03-23T02:58:11;22.13;;;4.30;;
17686;SDS011;8962;52.538;13.266;2024-03-23T03:00:39;20.35;;;4.28;;
17686;SDS011;8962;52.538;13.266;2024-03-23T03:03:05;25.90;;;4.25;;
17686;SDS011;8962;52.538;13.266;2024-03-23T03:05:34;17.35;;;4.10;;
17686;SDS011;8962;52.538;13.266;2024-03-23T03:08:00;21.85;;;4.72;;
17686;SDS011;8962;52.538;13.266;2024-03-23T03:10:27;17.55;;;4.65;;
17686;SDS011;8962;52.538;13.266;2024-03-23T03:12:53;20.58;;;4.57;;
17686;SDS011;8962;52.538;13.266;2024-03-23T03:15:23;22.83;;;4.72;;
17686;SDS011;8962;52.538;13.266;2024-03-23T03:17:49;20.63;;;4.18;;
17686;SDS011;8962;52.538;13.266;2024-03-23T03:20:16;21.52;;;4.40;;
17686;SDS011;8962;52.538;13.266;2024-03-23T03:22:43;23.58;;;4.28;;
17686;SDS011;8962;52.538;13.266;2024-03-23T03:25:10;19.30;;;5.18;;
17686;SDS011;8962;52.538;13.266;2024-03-23T03:27:36;19.95;;;4.68;;
17686;SDS011;8962;52.538;13.266;2024-03-23T03:30:03;24.63;;;4.93;;
17686;SDS011;8962;52.538;13.266;2024-03-23T03:32:33;20.58;;;4.30;;
17686;SDS011;8962;52.538;13.266;2024-03-23T03:35:00;17.45;;;3.97;;
17686;SDS011;8962;52.538;13.266;2024-03-23T03:37:27;20.63;;;4.57;;
17686;SDS011;8962;52.538;13.266;2024-03-23T03:39:54;18.45;;;4.78;;
17686;SDS011;8962;52.538;13.266;2024-03-23T03:42:21;18.20;;;4.22;;
17686;SDS011;8962;52.538;13.266;2024-03-23T03:44:48;20.10;;;3.63;;
17686;SDS011;8962;52.538;13.266;2024-03-23T03:47:14;12.80;;;3.13;;
17686;SDS011;8962;52.538;13.266;2024-03-23T03:49:42;15.98;;;3.30;;
17686;SDS011;8962;52.538;13.266;2024-03-23T03:52:08;12.73;;;2.63;;
17686;SDS011;8962;52.538;13.266;2024-03-23T03:54:36;15.65;;;3.00;;
17686;SDS011;8962;52.538;13.266;2024-03-23T03:57:02;12.75;;;3.13;;
17686;SDS011;8962;52.538;13.266;2024-03-23T03:59:29;13.82;;;2.60;;
17686;SDS011;8962;52.538;13.266;2024-03-23T04:01:55;15.15;;;2.97;;
17686;SDS011;8962;52.538;13.266;2024-03-23T04:04:23;12.25;;;2.67;;
17686;SDS011;8962;52.538;13.266;2024-03-23T04:06:51;12.13;;;2.63;;
17686;SDS011;8962;52.538;13.266;2024-03-23T04:09:25;9.90;;;2.58;;
17686;SDS011;8962;52.538;13.266;2024-03-23T04:11:51;10.68;;;2.30;;
17686;SDS011;8962;52.538;13.266;2024-03-23T04:14:18;10.63;;;2.50;;
17686;SDS011;8962;52.538;13.266;2024-03-23T04:16:44;11.68;;;2.88;;
17686;SDS011;8962;52.538;13.266;2024-03-23T04:19:11;8.05;;;2.00;;
17686;SDS011;8962;52.538;13.266;2024-03-23T04:21:37;11.68;;;2.45;;
17686;SDS011;8962;52.538;13.266;2024-03-23T04:24:06;8.32;;;1.88;;
17686;SDS011;8962;52.538;13.266;2024-03-23T04:26:39;11.70;;;2.72;;
17686;SDS011;8962;52.538;13.266;2024-03-23T04:29:07;10.60;;;2.30;;
17686;SDS011;8962;52.538;13.266;2024-03-23T04:31:33;11.52;;;2.35;;
17686;SDS011;8962;52.538;13.266;2024-03-23T04:34:00;9.35;;;2.50;;
17686;SDS011;8962;52.538;13.266;2024-03-23T04:36:27;10.45;;;2.45;;
17686;SDS011;8962;52.538;13.266;2024-03-23T04:38:54;10.88;;;2.72;;
17686;SDS011;8962;52.538;13.266;2024-03-23T04:41:23;12.93;;;3.10;;
17686;SDS011;8962;52.538;13.266;2024-03-23T04:43:51;15.32;;;3.85;;
17686;SDS011;8962;52.538;13.266;2024-03-23T04:46:18;12.70;;;3.20;;
17686;SDS011;8962;52.538;13.266;2024-03-23T04:48:46;12.68;;;3.47;;
17686;SDS011;8962;52.538;13.266;2024-03-23T04:51:20;12.80;;;2.85;;
17686;SDS011;8962;52.538;13.266;2024-03-23T04:53:48;11.25;;;2.75;;
17686;SDS011;8962;52.538;13.266;2024-03-23T04:56:15;14.52;;;3.03;;
17686;SDS011;8962;52.538;13.266;2024-03-23T04:58:43;18.27;;;3.70;;
17686;SDS011;8962;52.538;13.266;2024-03-23T05:01:10;10.98;;;2.90;;
17686;SDS011;8962;52.538;13.266;2024-03-23T05:03:37;10.98;;;3.05;;
17686;SDS011;8962;52.538;13.266;2024-03-23T05:06:04;17.25;;;3.05;;
17686;SDS011;8962;52.538;13.266;2024-03-23T05:08:33;13.60;;;2.75;;
17686;SDS011;8962;52.538;13.266;2024-03-23T05:10:59;8.35;;;2.20;;
17686;SDS011;8962;52.538;13.266;2024-03-23T05:13:26;11.48;;;2.58;;
17686;SDS011;8962;52.538;13.266;2024-03-23T05:15:55;8.02;;;2.78;;
17686;SDS011;8962;52.538;13.266;2024-03-23T05:18:21;11.00;;;2.50;;
17686;SDS011;8962;52.538;13.266;2024-03-23T05:20:55;9.25;;;2.63;;
17686;SDS011;8962;52.538;13.266;2024-03-23T05:23:21;11.20;;;2.50;;
17686;SDS011;8962;52.538;13.266;2024-03-23T05:25:48;10.38;;;2.67;;
17686;SDS011;8962;52.538;13.266;2024-03-23T05:28:14;7.80;;;2.42;;
17686;SDS011;8962;52.538;13.266;2024-03-23T05:30:41;9.73;;;2.50;;
17686;SDS011;8962;52.538;13.266;2024-03-23T05:33:09;8.73;;;2.40;;
17686;SDS011;8962;52.538;13.266;2024-03-23T05:35:36;12.43;;;2.80;;
17686;SDS011;8962;52.538;13.266;2024-03-23T05:38:02;10.50;;;2.63;;
17686;SDS011;8962;52.538;13.266;2024-03-23T05:40:32;11.30;;;2.45;;
17686;SDS011;8962;52.538;13.266;2024-03-23T05:43:02;11.45;;;2.67;;
17686;SDS011;8962;52.538;13.266;2024-03-23T05:45:29;11.27;;;2.67;;
17686;SDS011;8962;52.538;13.266;2024-03-23T05:47:55;11.30;;;2.63;;
17686;SDS011;8962;52.538;13.266;2024-03-23T05:50:24;12.25;;;2.63;;
17686;SDS011;8962;52.538;13.266;2024-03-23T05:52:50;11.50;;;2.45;;
17686;SDS011;8962;52.538;13.266;2024-03-23T05:55:17;8.88;;;2.42;;
17686;SDS011;8962;52.538;13.266;2024-03-23T05:57:43;8.98;;;2.17;;
17686;SDS011;8962;52.538;13.266;2024-03-23T06:00:11;8.85;;;2.40;;
17686;SDS011;8962;52.538;13.266;2024-03-23T06:02:41;9.02;;;2.38;;
17686;SDS011;8962;52.538;13.266;2024-03-23T06:05:09;6.75;;;2.45;;
17686;SDS011;8962;52.538;13.266;2024-03-23T06:07:37;8.93;;;2.58;;
17686;SDS011;8962;52.538;13.266;2024-03-23T06:10:04;6.70;;;2.42;;
17686;SDS011;8962;52.538;13.266;2024-03-23T06:12:31;11.75;;;2.60;;
17686;SDS011;8962;52.538;13.266;2024-03-23T06:14:59;8.82;;;2.40;;
17686;SDS011;8962;52.538;13.266;2024-03-23T06:17:25;8.05;;;2.65;;
17686;SDS011;8962;52.538;13.266;2024-03-23T06:19:52;10.18;;;2.70;;
17686;SDS011;8962;52.538;13.266;2024-03-23T06:22:18;7.70;;;2.47;;
17686;SDS011;8962;52.538;13.266;2024-03-23T06:24:47;9.10;;;2.42;;
17686;SDS011;8962;52.538;13.266;2024-03-23T06:27:13;8.82;;;2.75;;
17686;SDS011;8962;52.538;13.266;2024-03-23T06:29:40;12.73;;;3.08;;
17686;SDS011;8962;52.538;13.266;2024-03-23T06:32:07;8.70;;;2.35;;
17686;SDS011;8962;52.538;13.266;2024-03-23T06:34:34;9.27;;;2.42;;
17686;SDS011;8962;52.538;13.266;2024-03-23T06:37:00;8.20;;;2.25;;
17686;SDS011;8962;52.538;13.266;2024-03-23T06:39:28;8.48;;;2.40;;
17686;SDS011;8962;52.538;13.266;2024-03-23T06:41:55;9.82;;;2.33;;
17686;SDS011;8962;52.538;13.266;2024-03-23T06:44:23;7.07;;;1.95;;
17686;SDS011;8962;52.538;13.266;2024-03-23T06:46:50;9.43;;;1.92;;
17686;SDS011;8962;52.538;13.266;2024-03-23T06:49:16;9.35;;;2.33;;
17686;SDS011;8962;52.538;13.266;2024-03-23T06:51:46;8.48;;;2.13;;
17686;SDS011;8962;52.538;13.266;2024-03-23T06:54:12;6.57;;;2.55;;
17686;SDS011;8962;52.538;13.266;2024-03-23T06:56:40;8.90;;;2.25;;
17686;SDS011;8962;52.538;13.266;2024-03-23T06:59:07;10.48;;;2.58;;
17686;SDS011;8962;52.538;13.266;2024-03-23T07:01:35;8.25;;;2.58;;
17686;SDS011;8962;52.538;13.266;2024-03-23T07:04:01;10.35;;;2.67;;
17686;SDS011;8962;52.538;13.266;2024-03-23T07:06:29;14.07;;;2.83;;
17686;SDS011;8962;52.538;13.266;2024-03-23T07:08:55;6.85;;;2.30;;
17686;SDS011;8962;52.538;13.266;2024-03-23T07:11:23;8.43;;;2.50;;
17686;SDS011;8962;52.538;13.266;2024-03-23T07:13:50;10.45;;;2.78;;
17686;SDS011;8962;52.538;13.266;2024-03-23T07:16:21;11.70;;;2.65;;
17686;SDS011;8962;52.538;13.266;2024-03-23T07:18:47;8.65;;;2.70;;
17686;SDS011;8962;52.538;13.266;2024-03-23T07:21:14;8.60;;;2.17;;
17686;SDS011;8962;52.538;13.266;2024-03-23T07:23:41;11.23;;;2.67;;
17686;SDS011;8962;52.538;13.266;2024-03-23T07:26:10;8.98;;;2.75;;
17686;SDS011;8962;52.538;13.266;2024-03-23T07:28:36;9.90;;;2.63;;
17686;SDS011;8962;52.538;13.266;2024-03-23T07:31:08;8.18;;;3.22;;
17686;SDS011;8962;52.538;13.266;2024-03-23T07:33:37;8.98;;;2.70;;
17686;SDS011;8962;52.538;13.266;2024-03-23T07:36:08;8.55;;;2.42;;
17686;SDS011;8962;52.538;13.266;2024-03-23T07:38:35;7.97;;;2.67;;
17686;SDS011;8962;52.538;13.266;2024-03-23T07:41:02;10.27;;;2.65;;
17686;SDS011;8962;52.538;13.266;2024-03-23T07:43:29;9.27;;;2.42;;
17686;SDS011;8962;52.538;13.266;2024-03-23T07:45:56;9.75;;;2.63;;
17686;SDS011;8962;52.538;13.266;2024-03-23T07:48:23;6.85;;;2.33;;
17686;SDS011;8962;52.538;13.266;2024-03-23T07:50:59;9.65;;;2.28;;
17686;SDS011;8962;52.538;13.266;2024-03-23T07:53:26;12.00;;;2.65;;
17686;SDS011;8962;52.538;13.266;2024-03-23T07:55:54;9.35;;;2.70;;
17686;SDS011;8962;52.538;13.266;2024-03-23T07:58:21;10.18;;;2.97;;
17686;SDS011;8962;52.538;13.266;2024-03-23T08:00:48;10.00;;;2.63;;
17686;SDS011;8962;52.538;13.266;2024-03-23T08:03:14;6.97;;;2.80;;
17686;SDS011;8962;52.538;13.266;2024-03-23T08:05:41;8.30;;;2.28;;
17686;SDS011;8962;52.538;13.266;2024-03-23T08:08:08;4.97;;;1.90;;
17686;SDS011;8962;52.538;13.266;2024-03-23T08:10:36;10.80;;;2.30;;
17686;SDS011;8962;52.538;13.266;2024-03-23T08:13:02;8.23;;;1.92;;
17686;SDS011;8962;52.538;13.266;2024-03-23T08:15:30;7.30;;;2.10;;
17686;SDS011;8962;52.538;13.266;2024-03-23T08:17:58;6.28;;;2.05;;
17686;SDS011;8962;52.538;13.266;2024-03-23T08:20:26;11.32;;;2.50;;
17686;SDS011;8962;52.538;13.266;2024-03-23T08:22:52;9.85;;;2.45;;
17686;SDS011;8962;52.538;13.266;2024-03-23T08:25:22;8.52;;;3.15;;
17686;SDS011;8962;52.538;13.266;2024-03-23T08:27:48;13.70;;;3.22;;
17686;SDS011;8962;52.538;13.266;2024-03-23T08:30:15;10.02;;;2.83;;
17686;SDS011;8962;52.538;13.266;2024-03-23T08:32:41;10.30;;;2.25;;
17686;SDS011;8962;52.538;13.266;2024-03-23T08:35:08;9.10;;;2.80;;
17686;SDS011;8962;52.538;13.266;2024-03-23T08:37:34;9.10;;;2.15;;
17686;SDS011;8962;52.538;13.266;2024-03-23T08:40:02;9.65;;;3.00;;
17686;SDS011;8962;52.538;13.266;2024-03-23T08:42:31;6.72;;;2.13;;
17686;SDS011;8962;52.538;13.266;2024-03-23T08:44:58;7.20;;;2.10;;
17686;SDS011;8962;52.538;13.266;2024-03-23T08:47:24;7.65;;;2.50;;
17686;SDS011;8962;52.538;13.266;2024-03-23T08:49:51;7.40;;;2.20;;
17686;SDS011;8962;52.538;13.266;2024-03-23T08:52:17;8.15;;;1.90;;
17686;SDS011;8962;52.538;13.266;2024-03-23T08:54:44;4.57;;;1.60;;
17686;SDS011;8962;52.538;13.266;2024-03-23T08:57:11;6.95;;;2.00;;
17686;SDS011;8962;52.538;13.266;2024-03-23T08:59:39;5.10;;;1.70;;
17686;SDS011;8962;52.538;13.266;2024-03-23T09:02:06;4.53;;;1.60;;
17686;SDS011;8962;52.538;13.266;2024-03-23T09:04:33;6.22;;;1.60;;
17686;SDS011;8962;52.538;13.266;2024-03-23T09:07:00;3.65;;;1.45;;
17686;SDS011;8962;52.538;13.266;2024-03-23T09:09:28;3.95;;;1.65;;
17686;SDS011;8962;52.538;13.266;2024-03-23T09:11:54;7.43;;;1.42;;
17686;SDS011;8962;52.538;13.266;2024-03-23T09:14:21;7.82;;;2.17;;
17686;SDS011;8962;52.538;13.266;2024-03-23T09:16:51;4.10;;;1.60;;
17686;SDS011;8962;52.538;13.266;2024-03-23T09:19:18;4.60;;;1.70;;
17686;SDS011;8962;52.538;13.266;2024-03-23T09:21:44;4.70;;;1.27;;
17686;SDS011;8962;52.538;13.266;2024-03-23T09:24:11;7.93;;;2.13;;
17686;SDS011;8962;52.538;13.266;2024-03-23T09:26:37;5.80;;;1.70;;
17686;SDS011;8962;52.538;13.266;2024-03-23T09:29:04;5.65;;;1.90;;
17686;SDS011;8962;52.538;13.266;2024-03-23T09:31:30;5.25;;;1.80;;
17686;SDS011;8962;52.538;13.266;2024-03-23T09:34:00;6.47;;;1.92;;
17686;SDS011;8962;52.538;13.266;2024-03-23T09:36:26;6.93;;;2.30;;
17686;SDS011;8962;52.538;13.266;2024-03-23T09:38:53;7.70;;;2.30;;
17686;SDS011;8962;52.538;13.266;2024-03-23T09:41:19;7.57;;;2.85;;
17686;SDS011;8962;52.538;13.266;2024-03-23T09:43:46;10.30;;;2.10;;
17686;SDS011;8962;52.538;13.266;2024-03-23T09:46:14;8.43;;;2.00;;
17686;SDS011;8962;52.538;13.266;2024-03-23T09:48:42;8.35;;;2.63;;
17686;SDS011;8962;52.538;13.266;2024-03-23T09:51:13;10.98;;;2.53;;
17686;SDS011;8962;52.538;13.266;2024-03-23T09:53:40;8.40;;;2.33;;
17686;SDS011;8962;52.538;13.266;2024-03-23T09:56:07;14.18;;;2.40;;
17686;SDS011;8962;52.538;13.266;2024-03-23T09:58:35;5.47;;;1.85;;
17686;SDS011;8962;52.538;13.266;2024-03-23T10:01:01;7.85;;;2.03;;
17686;SDS011;8962;52.538;13.266;2024-03-23T10:03:30;10.50;;;2.40;;
17686;SDS011;8962;52.538;13.266;2024-03-23T10:06:02;8.43;;;2.13;;
17686;SDS011;8962;52.538;13.266;2024-03-23T10:08:31;10.38;;;2.30;;
17686;SDS011;8962;52.538;13.266;2024-03-23T10:10:58;8.75;;;1.90;;
17686;SDS011;8962;52.538;13.266;2024-03-23T10:13:41;6.50;;;1.80;;
17686;SDS011;8962;52.538;13.266;2024-03-23T10:16:08;9.23;;;2.72;;
17686;SDS011;8962;52.538;13.266;2024-03-23T10:18:38;9.98;;;2.30;;
17686;SDS011;8962;52.538;13.266;2024-03-23T10:21:08;12.48;;;2.25;;
17686;SDS011;8962;52.538;13.266;2024-03-23T10:23:38;8.15;;;2.50;;
17686;SDS011;8962;52.538;13.266;2024-03-23T10:26:15;7.63;;;2.33;;
17686;SDS011;8962;52.538;13.266;2024-03-23T10:28:54;9.15;;;2.33;;
17686;SDS011;8962;52.538;13.266;2024-03-23T10:31:23;9.52;;;2.25;;
17686;SDS011;8962;52.538;13.266;2024-03-23T10:33:50;10.15;;;2.67;;
17686;SDS011;8962;52.538;13.266;2024-03-23T10:36:19;8.60;;;2.30;;
17686;SDS011;8962;52.538;13.266;2024-03-23T10:38:49;9.18;;;2.35;;
17686;SDS011;8962;52.538;13.266;2024-03-23T10:41:16;6.38;;;2.40;;
17686;SDS011;8962;52.538;13.266;2024-03-23T10:43:45;11.55;;;2.53;;
17686;SDS011;8962;52.538;13.266;2024-03-23T10:46:12;12.60;;;2.70;;
17686;SDS011;8962;52.538;13.266;2024-03-23T10:48:39;6.97;;;2.15;;
17686;SDS011;8962;52.538;13.266;2024-03-23T10:51:06;9.18;;;2.35;;
17686;SDS011;8962;52.538;13.266;2024-03-23T10:53:34;9.48;;;2.30;;
17686;SDS011;8962;52.538;13.266;2024-03-23T10:56:04;10.15;;;3.05;;
17686;SDS011;8962;52.538;13.266;2024-03-23T10:58:32;8.25;;;2.67;;
17686;SDS011;8962;52.538;13.266;2024-03-23T11:01:02;9.48;;;2.78;;
17686;SDS011;8962;52.538;13.266;2024-03-23T11:03:30;11.27;;;2.90;;
17686;SDS011;8962;52.538;13.266;2024-03-23T11:05:57;11.40;;;3.45;;
17686;SDS011;8962;52.538;13.266;2024-03-23T11:08:33;6.78;;;2.58;;
17686;SDS011;8962;52.538;13.266;2024-03-23T11:11:15;34.80;;;14.85;;
17686;SDS011;8962;52.538;13.266;2024-03-23T11:13:44;24.85;;;9.23;;
17686;SDS011;8962;52.538;13.266;2024-03-23T11:16:13;37.10;;;15.88;;
17686;SDS011;8962;52.538;13.266;2024-03-23T11:18:41;9.95;;;3.60;;
17686;SDS011;8962;52.538;13.266;2024-03-23T11:21:07;11.13;;;3.22;;
17686;SDS011;8962;52.538;13.266;2024-03-23T11:23:34;8.27;;;2.90;;
17686;SDS011;8962;52.538;13.266;2024-03-23T11:26:00;8.95;;;3.35;;
17686;SDS011;8962;52.538;13.266;2024-03-23T11:28:29;8.68;;;2.85;;
17686;SDS011;8962;52.538;13.266;2024-03-23T11:30:55;12.63;;;3.30;;
17686;SDS011;8962;52.538;13.266;2024-03-23T11:33:23;9.57;;;2.83;;
17686;SDS011;8962;52.538;13.266;2024-03-23T11:35:49;8.25;;;2.80;;
17686;SDS011;8962;52.538;13.266;2024-03-23T11:38:17;11.15;;;3.30;;
17686;SDS011;8962;52.538;13.266;2024-03-23T11:40:44;7.20;;;2.88;;
17686;SDS011;8962;52.538;13.266;2024-03-23T11:43:12;8.35;;;2.67;;
17686;SDS011;8962;52.538;13.266;2024-03-23T11:45:42;6.97;;;2.25;;
17686;SDS011;8962;52.538;13.266;2024-03-23T11:48:10;10.32;;;2.35;;
17686;SDS011;8962;52.538;13.266;2024-03-23T11:50:38;8.57;;;2.10;;
17686;SDS011;8962;52.538;13.266;2024-03-23T11:53:07;7.28;;;2.75;;
17686;SDS011;8962;52.538;13.266;2024-03-23T11:55:46;6.43;;;2.00;;
17686;SDS011;8962;52.538;13.266;2024-03-23T11:58:15;6.75;;;2.28;;
17686;SDS011;8962;52.538;13.266;2024-03-23T12:00:48;11.27;;;2.40;;
17686;SDS011;8962;52.538;13.266;2024-03-23T12:03:17;7.80;;;2.20;;
17686;SDS011;8962;52.538;13.266;2024-03-23T12:05:47;9.65;;;2.78;;
17686;SDS011;8962;52.538;13.266;2024-03-23T12:08:18;12.55;;;3.05;;
17686;SDS011;8962;52.538;13.266;2024-03-23T12:10:47;11.88;;;2.90;;
17686;SDS011;8962;52.538;13.266;2024-03-23T12:13:16;9.23;;;2.60;;
17686;SDS011;8962;52.538;13.266;2024-03-23T12:15:45;11.30;;;2.40;;
17686;SDS011;8962;52.538;13.266;2024-03-23T12:18:13;9.73;;;2.38;;
17686;SDS011;8962;52.538;13.266;2024-03-23T12:20:39;7.00;;;2.80;;
17686;SDS011;8962;52.538;13.266;2024-03-23T12:23:07;9.43;;;2.88;;
17686;SDS011;8962;52.538;13.266;2024-03-23T12:25:34;8.30;;;3.47;;
17686;SDS011;8962;52.538;13.266;2024-03-23T12:28:02;12.02;;;3.85;;
17686;SDS011;8962;52.538;13.266;2024-03-23T12:30:31;8.05;;;2.85;;
17686;SDS011;8962;52.538;13.266;2024-03-23T12:33:00;8.65;;;2.13;;
17686;SDS011;8962;52.538;13.266;2024-03-23T12:35:26;10.43;;;3.03;;
17686;SDS011;8962;52.538;13.266;2024-03-23T12:37:55;11.82;;;2.20;;
17686;SDS011;8962;52.538;13.266;2024-03-23T12:40:22;7.05;;;1.90;;
17686;SDS011;8962;52.538;13.266;2024-03-23T12:42:49;8.35;;;2.00;;
17686;SDS011;8962;52.538;13.266;2024-03-23T12:45:15;4.35;;;1.95;;
17686;SDS011;8962;52.538;13.266;2024-03-23T12:47:43;5.90;;;1.90;;
17686;SDS011;8962;52.538;13.266;2024-03-23T12:50:11;8.68;;;2.08;;
17686;SDS011;8962;52.538;13.266;2024-03-23T12:52:38;12.60;;;5.35;;
17686;SDS011;8962;52.538;13.266;2024-03-23T12:55:10;9.25;;;2.10;;
17686;SDS011;8962;52.538;13.266;2024-03-23T12:57:37;8.75;;;3.17;;
17686;SDS011;8962;52.538;13.266;2024-03-23T13:00:06;8.27;;;2.65;;
17686;SDS011;8962;52.538;13.266;2024-03-23T13:02:38;15.30;;;6.72;;
17686;SDS011;8962;52.538;13.266;2024-03-23T13:05:05;8.23;;;2.58;;
17686;SDS011;8962;52.538;13.266;2024-03-23T13:07:35;13.52;;;4.00;;
17686;SDS011;8962;52.538;13.266;2024-03-23T13:10:03;12.80;;;3.60;;
17686;SDS011;8962;52.538;13.266;2024-03-23T13:12:31;9.32;;;2.67;;
17686;SDS011;8962;52.538;13.266;2024-03-23T13:14:58;7.43;;;2.50;;
17686;SDS011;8962;52.538;13.266;2024-03-23T13:17:25;9.05;;;3.42;;
17686;SDS011;8962;52.538;13.266;2024-03-23T13:19:52;6.75;;;2.40;;
17686;SDS011;8962;52.538;13.266;2024-03-23T13:22:19;8.55;;;2.53;;
17686;SDS011;8962;52.538;13.266;2024-03-23T13:24:47;6.97;;;2.83;;
17686;SDS011;8962;52.538;13.266;2024-03-23T13:27:14;6.13;;;2.40;;
17686;SDS011;8962;52.538;13.266;2024-03-23T13:29:40;10.23;;;2.47;;
17686;SDS011;8962;52.538;13.266;2024-03-23T13:32:07;8.65;;;2.78;;
17686;SDS011;8962;52.538;13.266;2024-03-23T13:34:34;7.10;;;2.45;;
17686;SDS011;8962;52.538;13.266;2024-03-23T13:37:01;7.43;;;2.67;;
17686;SDS011;8962;52.538;13.266;2024-03-23T13:39:28;6.97;;;3.00;;
17686;SDS011;8962;52.538;13.266;2024-03-23T13:41:58;6.30;;;2.70;;
17686;SDS011;8962;52.538;13.266;2024-03-23T13:44:24;17.02;;;8.00;;
17686;SDS011;8962;52.538;13.266;2024-03-23T13:46:51;10.05;;;3.63;;
17686;SDS011;8962;52.538;13.266;2024-03-23T13:49:23;8.48;;;2.90;;
17686;SDS011;8962;52.538;13.266;2024-03-23T13:51:53;10.35;;;3.00;;
17686;SDS011;8962;52.538;13.266;2024-03-23T13:54:19;13.60;;;3.70;;
17686;SDS011;8962;52.538;13.266;2024-03-23T13:56:47;10.13;;;3.30;;
17686;SDS011;8962;52.538;13.266;2024-03-23T13:59:15;10.50;;;3.17;;
17686;SDS011;8962;52.538;13.266;2024-03-23T14:01:46;9.52;;;3.33;;
17686;SDS011;8962;52.538;13.266;2024-03-23T14:04:12;10.55;;;3.50;;
17686;SDS011;8962;52.538;13.266;2024-03-23T14:06:42;13.95;;;4.80;;
17686;SDS011;8962;52.538;13.266;2024-03-23T14:09:10;8.65;;;3.25;;
17686;SDS011;8962;52.538;13.266;2024-03-23T14:11:37;12.63;;;3.97;;
17686;SDS011;8962;52.538;13.266;2024-03-23T14:14:03;10.27;;;3.80;;
17686;SDS011;8962;52.538;13.266;2024-03-23T14:16:32;13.25;;;5.35;;
17686;SDS011;8962;52.538;13.266;2024-03-23T14:18:58;12.88;;;4.22;;
17686;SDS011;8962;52.538;13.266;2024-03-23T14:21:26;12.18;;;3.10;;
17686;SDS011;8962;52.538;13.266;2024-03-23T14:23:52;15.75;;;4.97;;
17686;SDS011;8962;52.538;13.266;2024-03-23T14:26:20;20.52;;;6.70;;
17686;SDS011;8962;52.538;13.266;2024-03-23T14:28:46;11.05;;;4.63;;
17686;SDS011;8962;52.538;13.266;2024-03-23T14:31:13;13.15;;;4.55;;
17686;SDS011;8962;52.538;13.266;2024-03-23T14:33:40;25.38;;;9.25;;
17686;SDS011;8962;52.538;13.266;2024-03-23T14:36:11;9.43;;;3.17;;
17686;SDS011;8962;52.538;13.266;2024-03-23T14:38:41;11.23;;;3.67;;
17686;SDS011;8962;52.538;13.266;2024-03-23T14:41:09;12.50;;;3.33;;
17686;SDS011;8962;52.538;13.266;2024-03-23T14:43:35;12.68;;;3.83;;
17686;SDS011;8962;52.538;13.266;2024-03-23T14:46:05;13.18;;;3.60;;
17686;SDS011;8962;52.538;13.266;2024-03-23T14:48:32;11.07;;;3.30;;
17686;SDS011;8962;52.538;13.266;2024-03-23T14:51:01;10.32;;;3.42;;
17686;SDS011;8962;52.538;13.266;2024-03-23T14:53:29;8.55;;;4.13;;
17686;SDS011;8962;52.538;13.266;2024-03-23T14:55:57;10.20;;;3.72;;
17686;SDS011;8962;52.538;13.266;2024-03-23T14:58:25;12.75;;;4.00;;
17686;SDS011;8962;52.538;13.266;2024-03-23T15:00:52;9.75;;;3.90;;
17686;SDS011;8962;52.538;13.266;2024-03-23T15:03:18;10.63;;;4.00;;
17686;SDS011;8962;52.538;13.266;2024-03-23T15:05:54;12.00;;;3.85;;
17686;SDS011;8962;52.538;13.266;2024-03-23T15:08:23;8.93;;;3.40;;
17686;SDS011;8962;52.538;13.266;2024-03-23T15:10:50;7.22;;;3.10;;
17686;SDS011;8962;52.538;13.266;2024-03-23T15:13:16;6.47;;;2.85;;
17686;SDS011;8962;52.538;13.266;2024-03-23T15:15:44;7.60;;;2.78;;
17686;SDS011;8962;52.538;13.266;2024-03-23T15:18:10;5.38;;;2.55;;
17686;SDS011;8962;52.538;13.266;2024-03-23T15:20:41;6.40;;;2.30;;
17686;SDS011;8962;52.538;13.266;2024-03-23T15:23:07;8.27;;;2.63;;
17686;SDS011;8962;52.538;13.266;2024-03-23T15:25:36;9.93;;;3.22;;
17686;SDS011;8962;52.538;13.266;2024-03-23T15:28:02;6.25;;;2.50;;
17686;SDS011;8962;52.538;13.266;2024-03-23T15:30:29;4.80;;;2.42;;
17686;SDS011;8962;52.538;13.266;2024-03-23T15:32:55;8.57;;;2.67;;
17686;SDS011;8962;52.538;13.266;2024-03-23T15:35:22;10.65;;;2.70;;
17686;SDS011;8962;52.538;13.266;2024-03-23T15:37:48;7.35;;;2.80;;